NCAR-RAP Real-Time Weather Data

Output produced by METARs form (08 May 2021  15:26 UTC)
found at http://weather.rap.ucar.edu/surface/
 
KORD 081451Z 00000KT 10SM SCT032 SCT050 SCT250 09/01 A3016 RMK AO2 SLP215 T00940011 50004
KORD 081351Z 12005KT 10SM FEW035 SCT060 08/01 A3016 RMK AO2 SLP215 T00830011
KORD 081251Z 01003KT 10SM FEW050 07/02 A3015 RMK AO2 SLP214 T00670017
KORD 081151Z 34004KT 10SM BKN050 05/02 A3014 RMK AO2 SLP211 T00500022 10050 20028 51013
KORD 081051Z 32004KT 10SM FEW035 03/00 A3013 RMK AO2 SLP207 T00280000
KORD 080951Z 29003KT 10SM FEW040 04/01 A3012 RMK AO2 SLP203 T00390006
KORD 080851Z 29004KT 10SM FEW070 03/00 A3010 RMK AO2 SLP198 T00280000 53004
KORD 080751Z 33003KT 10SM CLR 04/00 A3010 RMK AO2 SLP196 T00390000
KORD 080651Z 36003KT 10SM FEW070 04/00 A3009 RMK AO2 SLP193 T00390000
KORD 080551Z 01004KT 10SM CLR 04/01 A3009 RMK AO2 SLP193 T00440006 10083 20044 401560044 51004
KORD 080451Z 02006KT 10SM CLR 05/01 A3009 RMK AO2 SLP193 T00500011
KORD 080351Z 03003KT 10SM CLR 06/02 A3009 RMK AO2 SLP191 T00560017
KORD 080251Z 03007KT 10SM FEW065 06/02 A3008 RMK AO2 SLP188 T00560017 53013
KORD 080151Z 03008KT 10SM FEW070 06/02 A3006 RMK AO2 SLP183 T00610017
KORD 080051Z 03010KT 10SM FEW070 07/02 A3005 RMK AO2 SLP178 T00720017
KORD 072351Z 03015KT 10SM SCT070 08/02 A3004 RMK AO2 SLP176 T00780022 10156 20078 51012
KORD 072251Z 06013G22KT 10SM BKN065 BKN080 09/02 A3003 RMK AO2 WSHFT 2223 SLP171 T00940017
KORD 072243Z 04017G24KT 10SM BKN075 09/02 A3003 RMK AO2 WSHFT 2223 T00940017
KORD 072151Z 05011KT 10SM SCT060 BKN080 11/01 A3001 RMK AO2 SLP166 T01110011
KORD 072051Z 03010KT 10SM SCT065 BKN080 11/01 A3000 RMK AO2 WSHFT 1938 SLP163 T01110011 53009
KORD 071958Z 05012G19KT 10SM BKN070 12/01 A2999 RMK AO2 WSHFT 1938 T01170011
KORD 071951Z 06013KT 10SM BKN070 12/01 A2999 RMK AO2 WSHFT 1932 SLP159 T01170011
KORD 071851Z 34011G18KT 10SM BKN070 14/M02 A2998 RMK AO2 PK WND 34026/1821 SLP154 T01441017 $
KORD 071751Z 31011G19KT 10SM BKN065 14/M02 A2998 RMK AO2 SLP152 T01441017 10156 20078 50002 $
KORD 071651Z 32014G21KT 10SM SCT050 BKN070 14/00 A2998 RMK AO2 SLP153 T01390000 $
KORD 071551Z 33010G20KT 10SM FEW045 BKN075 14/02 A2997 RMK AO2 SLP150 T01390022 $
KORD 071451Z 31011KT 10SM FEW045 SCT070 SCT110 13/02 A2997 RMK AO2 SLP150 T01330022 58003 $
KORD 071351Z 29007KT 10SM BKN070 BKN090 12/02 A2998 RMK AO2 SLP152 T01220017 $
KORD 071251Z 26006KT 10SM SCT090 BKN110 10/02 A2998 RMK AO2 SLP154 T01000022
KORD 071151Z 28004KT 10SM BKN095 08/02 A2998 RMK AO2 SLP153 VIRGA NE 70001 T00780022 10078 20067 55001
KORD 071051Z 24007KT 10SM BKN090 07/02 A2998 RMK AO2 SLP152 T00720022
KORD 070951Z 22007KT 10SM BKN110 07/02 A2997 RMK AO2 SLP149 T00720017
KORD 070851Z 22007KT 10SM FEW250 07/02 A2998 RMK AO2 SLP155 T00670017 58014
KORD 070751Z 22007KT 10SM CLR 07/01 A3000 RMK AO2 SLP161 T00670011
KORD 070651Z 20005KT 10SM FEW110 07/M01 A3001 RMK AO2 SLP166 T00671006
KORD 070551Z 17005KT 10SM FEW065 FEW110 07/00 A3002 RMK AO2 SLP171 T00670000 10122 20067 401330067 58013
KORD 070451Z 00000KT 10SM BKN065 09/M02 A3005 RMK AO2 SLP179 T00891017
KORD 070351Z 20005KT 10SM FEW065 BKN110 09/M01 A3005 RMK AO2 SLP180 T00891011
KORD 070251Z 15005KT 10SM FEW070 SCT090 09/M02 A3006 RMK AO2 SLP182 T00891022 53006
KORD 070151Z 13005KT 10SM FEW070 SCT090 09/M02 A3005 RMK AO2 SLP179 T00941022
KORD 070051Z 10005KT 10SM FEW065 FEW090 10/M03 A3005 RMK AO2 SLP177 T01001033
KORD 062351Z 08007KT 10SM FEW060 FEW090 12/M02 A3004 RMK AO2 SLP175 T01221022 10133 20083 56006
KORD 062251Z 05009KT 10SM FEW055 FEW080 13/00 A3004 RMK AO2 SLP175 T01330000
KORD 062151Z 02010KT 10SM FEW050 13/01 A3004 RMK AO2 SLP175 T01280006
KORD 062051Z 01010KT 10SM FEW025 11/03 A3006 RMK AO2 SLP181 T01110033 56008
KORD 062031Z 01008KT 10SM SCT017 11/05 A3007 RMK AO2 T01110050
KORD 061951Z 36007KT 10SM BKN015 09/05 A3007 RMK AO2 SLP185 T00890050
KORD 061851Z 36010KT 10SM OVC015 08/04 A3008 RMK AO2 SLP187 T00830044
KORD 061751Z 03010KT 10SM BKN014 BKN028 OVC230 08/04 A3009 RMK AO2 RAB01E50 SLP191 P0000 60001 T00830044 10094 20072 51002
KORD 061749Z 03011KT 10SM -RA BKN014 BKN028 BKN039 OVC230 09/05 A3009 RMK AO2 RAB01 P0000
KORD 061731Z 03011KT 10SM -RA BKN015 OVC050 08/05 A3009 RMK AO2 RAB01 P0000 T00830050
KORD 061651Z 03012KT 10SM FEW013 SCT038 OVC055 08/04 A3009 RMK AO2 SLP191 T00780039
KORD 061551Z 03013KT 10SM FEW011 OVC038 09/06 A3008 RMK AO2 SLP189 T00890056